Terminal Aerodrome Forecast
Issued by NWS

Home | Current Version | Previous Version | Text Only | Print | Product List | Glossary On
Versions: 1 2 3 4 5 6 7 8 9 10 11 12 13
000
FTUS42 KFFC 221728
TAFRYY
TAF
KRYY 221728Z 2218/2318 12009KT P6SM BKN030 BKN060
     FM222000 12008KT P6SM BKN040
     FM230400 11009KT P6SM OVC025
     FM230700 12009KT P6SM OVC008
     FM230900 13009KT 5SM -SHRA OVC010 PROB30 2314/2318 VRB10G20KT
      3SM TSRA BKN010CB=

USA.gov is the U.S. government's official web portal to all federal, state and local government web resources and services.